Isles of Scilly, United Kingdom
Current Conditions -  °F | °C
As of 6:50 AM on Sunday 26 Oct 2014 (Local Time) from EGDR Reporting Station
Broken Clouds Broken Clouds  
Wind Chill: 55°   Ceiling: 3000
Heat Index: 55°   Visibility: 6mi
Dew Point: 45°   Wind: 15mph
Humidity: 67%   Direction: 230°SW
Pressure: 30.12"   Gusts: NA
Location:  49.91°N, 6.31°W
Report Text: EGDR 260550Z 23013KT 9999 FEW014 SCT024 BKN030 13/07 Q1020 WHT
Loading
Personal Weather Stations






























Interactive Weather Map New forecast layout! Learn more

10-Day Weather Forecast

Advertisements
Track Severe Weather on mobile